createdAt,value
2023-04-12T00:02:27.384Z,8.57
2023-04-12T00:07:30.106Z,7.97
2023-04-12T00:12:31.625Z,10.40
2023-04-12T00:17:33.078Z,6.90
2023-04-12T00:22:34.542Z,7.90
2023-04-12T00:27:36.235Z,10.25
2023-04-12T00:32:37.792Z,9.68
2023-04-12T00:37:39.320Z,7.32
2023-04-12T00:42:41.093Z,6.82
2023-04-12T00:47:43.312Z,6.53
2023-04-12T00:52:44.977Z,7.28
2023-04-12T00:57:46.880Z,6.82
2023-04-12T01:02:50.568Z,6.43
2023-04-12T01:08:29.721Z,5.95
2023-04-12T01:13:48.957Z,6.53
2023-04-12T01:18:54.036Z,7.22
2023-04-12T01:24:07.487Z,6.22
2023-04-12T01:29:11.984Z,8.20
2023-04-12T01:34:16.016Z,6.30
2023-04-12T01:39:17.648Z,7.35
2023-04-12T01:44:19.349Z,6.63
2023-04-12T01:49:24.542Z,6.18
2023-04-12T01:54:32.671Z,5.68
2023-04-12T01:59:41.934Z,11.48
2023-04-12T02:09:44.819Z,7.38
2023-04-12T02:14:47.074Z,6.03
2023-04-12T02:19:48.562Z,6.30
2023-04-12T02:24:49.979Z,7.63
2023-04-12T02:29:51.415Z,6.18
2023-04-12T02:34:52.837Z,6.10
2023-04-12T02:39:56.951Z,6.28
2023-04-12T02:44:58.667Z,8.27
2023-04-12T02:50:00.162Z,8.00
2023-04-12T02:55:01.714Z,8.80
2023-04-12T03:00:08.238Z,8.57
2023-04-12T03:05:10.691Z,6.82
2023-04-12T03:10:12.764Z,6.93
2023-04-12T03:15:14.245Z,6.60
2023-04-12T03:20:17.171Z,8.68
2023-04-12T03:25:18.705Z,7.40
2023-04-12T03:30:20.165Z,7.03
2023-04-12T03:35:21.621Z,9.30
2023-04-12T03:40:23.073Z,8.60
2023-04-12T03:45:24.605Z,14.35
2023-04-12T03:50:29.446Z,9.68
2023-04-12T03:55:30.868Z,10.30
2023-04-12T04:00:32.545Z,11.88
2023-04-12T04:05:34.112Z,12.85
2023-04-12T04:10:36.160Z,9.02
2023-04-12T04:15:37.681Z,15.57
2023-04-12T04:20:39.106Z,14.27
2023-04-12T04:25:41.849Z,11.23
2023-04-12T04:30:46.058Z,12.35
2023-04-12T04:35:47.541Z,14.40
2023-04-12T04:40:53.377Z,12.65
2023-04-12T04:45:55.645Z,13.07
2023-04-12T04:50:57.399Z,8.85
2023-04-12T04:55:59.588Z,11.88
2023-04-12T05:01:01.053Z,8.32
2023-04-12T05:06:03.864Z,9.13
2023-04-12T05:11:05.616Z,7.20
2023-04-12T05:16:08.227Z,6.65
2023-04-12T05:21:09.683Z,7.07
2023-04-12T05:26:11.314Z,6.97
2023-04-12T05:31:13.057Z,7.95
2023-04-12T05:36:14.489Z,7.20
2023-04-12T05:41:16.034Z,8.85
2023-04-12T05:46:17.558Z,7.68
2023-04-12T05:51:25.179Z,8.95
2023-04-12T05:56:32.389Z,9.77
2023-04-12T06:01:34.341Z,8.82
2023-04-12T06:06:35.802Z,10.25
2023-04-12T06:11:39.153Z,10.57
2023-04-12T06:16:42.009Z,10.93
2023-04-12T06:21:43.582Z,9.20
2023-04-12T06:26:47.003Z,9.35
2023-04-12T06:31:48.683Z,12.95
2023-04-12T06:36:50.337Z,9.23
2023-04-12T06:41:51.743Z,11.95
2023-04-12T06:46:53.335Z,10.93
2023-04-12T06:51:54.780Z,9.48
2023-04-12T06:56:57.394Z,9.20
2023-04-12T07:01:58.970Z,9.18
2023-04-12T07:07:00.509Z,7.78
2023-04-12T07:12:02.824Z,12.05
2023-04-12T07:17:04.238Z,10.40
2023-04-12T07:22:05.658Z,8.38
2023-04-12T07:27:07.121Z,9.57
2023-04-12T07:32:09.924Z,9.00
2023-04-12T07:37:11.405Z,8.95
2023-04-12T07:42:12.911Z,9.57
2023-04-12T07:47:14.319Z,11.45
2023-04-12T07:52:15.949Z,7.25
2023-04-12T07:57:17.412Z,9.93
2023-04-12T08:02:24.787Z,5.63
2023-04-12T08:07:27.342Z,6.18
2023-04-12T08:12:28.760Z,4.35
2023-04-12T08:17:30.459Z,4.85
2023-04-12T08:22:31.905Z,7.00
2023-04-12T08:27:33.521Z,11.25
2023-04-12T08:32:37.526Z,7.22
2023-04-12T08:37:39.031Z,5.82
2023-04-12T08:42:41.382Z,2.80
2023-04-12T08:47:44.853Z,6.00
2023-04-12T08:52:49.148Z,4.32
2023-04-12T08:57:53.487Z,6.30
2023-04-12T09:02:55.081Z,8.20
2023-04-12T09:07:57.396Z,5.22
2023-04-12T09:13:00.222Z,4.65
2023-04-12T09:18:09.982Z,4.07
2023-04-12T09:23:22.467Z,5.43
2023-04-12T09:28:26.025Z,6.97
2023-04-12T09:33:39.015Z,6.93
2023-04-12T09:38:43.043Z,5.13
2023-04-12T09:43:44.605Z,5.15
2023-04-12T09:48:51.439Z,5.20
2023-04-12T09:53:53.582Z,3.63
2023-04-12T09:59:00.156Z,6.43
2023-04-12T10:04:02.830Z,5.18
2023-04-12T10:09:06.704Z,4.00
2023-04-12T10:14:09.918Z,5.80
2023-04-12T10:19:13.043Z,5.05
2023-04-12T10:24:15.333Z,5.97
2023-04-12T10:29:38.596Z,4.65
2023-04-12T10:34:42.706Z,4.30
2023-04-12T10:39:47.415Z,4.10
2023-04-12T10:44:50.394Z,5.15
2023-04-12T10:50:20.153Z,3.53
2023-04-12T10:55:28.137Z,3.05
2023-04-12T11:00:58.680Z,2.90
2023-04-12T11:06:19.636Z,4.93
2023-04-12T11:11:27.066Z,2.65
2023-04-12T11:16:28.586Z,2.85
2023-04-12T11:21:30.901Z,5.80
2023-04-12T11:26:32.441Z,4.85
2023-04-12T11:31:33.926Z,4.55
2023-04-12T11:36:35.422Z,3.08
2023-04-12T11:41:37.478Z,2.95
2023-04-12T11:46:39.089Z,4.22
2023-04-12T11:51:40.748Z,3.15
2023-04-12T11:56:42.520Z,3.63
2023-04-12T12:01:43.998Z,3.30
2023-04-12T12:06:46.784Z,3.72
2023-04-12T12:11:48.883Z,3.55
2023-04-12T12:16:55.440Z,5.30
2023-04-12T12:22:19.769Z,3.60
2023-04-12T12:27:25.169Z,5.40
2023-04-12T12:32:27.201Z,5.38
2023-04-12T12:37:30.213Z,7.05
2023-04-12T12:42:31.928Z,4.47
2023-04-12T12:47:33.539Z,4.28
2023-04-12T12:52:35.171Z,6.53
2023-04-12T12:57:37.071Z,3.58
2023-04-12T13:02:39.762Z,5.40
2023-04-12T13:07:41.384Z,3.65
2023-04-12T13:12:42.931Z,2.92
2023-04-12T13:17:44.471Z,2.60
2023-04-12T13:22:45.909Z,4.28
2023-04-12T13:27:48.992Z,3.72
2023-04-12T13:32:50.584Z,4.53
2023-04-12T13:37:52.047Z,3.17
2023-04-12T13:42:53.453Z,3.38
2023-04-12T13:47:54.967Z,3.28
2023-04-12T13:52:56.462Z,3.63
2023-04-12T13:57:57.929Z,3.33
2023-04-12T14:02:59.515Z,4.65
2023-04-12T14:08:01.118Z,3.08
2023-04-12T14:13:02.591Z,3.38
2023-04-12T14:18:04.138Z,4.65
2023-04-12T14:23:07.861Z,2.80
2023-04-12T14:28:09.506Z,2.85
2023-04-12T14:33:11.025Z,4.13
2023-04-12T14:38:12.659Z,3.75
2023-04-12T14:43:14.069Z,2.78
2023-04-12T14:48:15.664Z,3.22
2023-04-12T14:53:18.715Z,3.28
2023-04-12T14:58:20.173Z,3.60
2023-04-12T15:03:21.709Z,3.38
2023-04-12T15:08:23.686Z,3.67
2023-04-12T15:13:32.528Z,4.80
2023-04-12T15:18:39.412Z,3.92
2023-04-12T15:23:41.721Z,3.15
2023-04-12T15:28:43.226Z,3.05
2023-04-12T15:33:46.625Z,4.50
2023-04-12T15:38:48.046Z,3.85
2023-04-12T15:43:49.482Z,4.45
2023-04-12T15:48:51.213Z,3.17
2023-04-12T15:53:53.726Z,3.70
2023-04-12T15:59:01.198Z,5.63
2023-04-12T16:04:03.319Z,5.68
2023-04-12T16:09:05.037Z,4.75
2023-04-12T16:14:07.266Z,4.32
2023-04-12T16:19:08.689Z,4.03
2023-04-12T16:24:11.354Z,6.25
2023-04-12T16:29:13.602Z,5.25
2023-04-12T16:34:15.877Z,3.88
2023-04-12T16:39:17.538Z,5.88
2023-04-12T16:44:19.029Z,5.20
2023-04-12T16:49:20.847Z,5.35
2023-04-12T16:54:22.255Z,6.43
2023-04-12T16:59:24.280Z,7.15
2023-04-12T17:04:26.093Z,5.00
2023-04-12T17:09:28.056Z,5.20
2023-04-12T17:14:32.403Z,5.93
2023-04-12T17:19:33.965Z,6.00
2023-04-12T17:24:35.829Z,7.57
2023-04-12T17:29:37.272Z,7.57
2023-04-12T17:34:42.306Z,9.93
2023-04-12T17:39:44.120Z,7.80
2023-04-12T17:44:46.238Z,7.97
2023-04-12T17:49:47.657Z,9.85
2023-04-12T17:54:49.098Z,7.63
2023-04-12T17:59:50.501Z,14.25
2023-04-12T18:04:52.160Z,13.98
2023-04-12T18:09:53.570Z,16.10
2023-04-12T18:14:54.991Z,10.70
2023-04-12T18:19:56.417Z,12.48
2023-04-12T18:24:57.835Z,10.75
2023-04-12T18:30:01.323Z,13.35
2023-04-12T18:35:04.633Z,12.02
2023-04-12T18:40:07.447Z,11.45
2023-04-12T18:45:09.601Z,13.07
2023-04-12T18:50:11.555Z,10.00
2023-04-12T18:55:13.370Z,13.45
2023-04-12T19:00:15.109Z,15.98
2023-04-12T19:05:18.452Z,11.30
2023-04-12T19:10:20.223Z,11.70
2023-04-12T19:15:21.649Z,14.20
2023-04-12T19:20:23.118Z,16.42
2023-04-12T19:25:29.747Z,17.35
2023-04-12T19:30:32.004Z,15.80
2023-04-12T19:35:35.369Z,14.25
2023-04-12T19:40:36.917Z,11.60
2023-04-12T19:45:38.466Z,13.00
2023-04-12T19:50:39.965Z,15.00
2023-04-12T19:55:42.482Z,14.30
2023-04-12T20:00:43.937Z,15.00
2023-04-12T20:05:46.127Z,14.68
2023-04-12T20:10:47.622Z,19.48
2023-04-12T20:15:50.932Z,16.73
2023-04-12T20:20:53.243Z,23.90
2023-04-12T20:25:55.661Z,16.17
2023-04-12T20:30:57.750Z,21.80
2023-04-12T20:35:59.566Z,16.67
2023-04-12T20:41:01.001Z,16.95
2023-04-12T20:46:02.501Z,15.27
2023-04-12T20:51:04.566Z,17.15
2023-04-12T20:56:07.193Z,18.80
2023-04-12T21:01:14.521Z,17.33
2023-04-12T21:06:17.093Z,17.60
2023-04-12T21:11:18.496Z,20.13
2023-04-12T21:16:20.482Z,17.58
2023-04-12T21:21:22.434Z,21.95
2023-04-12T21:26:24.330Z,21.05
2023-04-12T21:31:26.127Z,19.50
2023-04-12T21:36:30.580Z,17.42
2023-04-12T21:41:32.095Z,18.63
2023-04-12T21:46:33.558Z,19.30
2023-04-12T21:51:35.300Z,18.70
2023-04-12T21:56:36.755Z,19.83
2023-04-12T22:01:38.371Z,20.52
2023-04-12T22:06:39.906Z,22.50
2023-04-12T22:11:41.337Z,21.02
2023-04-12T22:16:42.952Z,19.50
2023-04-12T22:21:45.401Z,16.75
2023-04-12T22:26:47.621Z,19.83
2023-04-12T22:31:49.028Z,21.80
2023-04-12T22:36:51.739Z,25.90
2023-04-12T22:41:53.467Z,20.00
2023-04-12T22:46:56.689Z,20.92
2023-04-12T22:51:58.469Z,22.77
2023-04-12T22:56:59.869Z,24.70
2023-04-12T23:02:01.761Z,26.95
2023-04-12T23:07:03.300Z,24.20
2023-04-12T23:12:06.324Z,23.05
2023-04-12T23:17:07.824Z,26.38
2023-04-12T23:22:10.487Z,23.13
2023-04-12T23:27:11.899Z,23.25
2023-04-12T23:32:13.978Z,24.13
2023-04-12T23:37:15.411Z,25.95
2023-04-12T23:42:17.003Z,23.20
2023-04-12T23:47:18.442Z,24.02
2023-04-12T23:52:19.874Z,23.33
2023-04-12T23:57:21.742Z,21.50
